Time;durP1;ratioP1;P1;durP2;ratioP2;P2;SDS_P1;SDS_P2;PMS_P1;PMS_P2;Temp;Humidity;BMP_temperature;BMP_pressure;BME280_temperature;BME280_humidity;BME280_pressure;Samples;Min_cycle;Max_cycle;Signal;HPM_P1;HPM_P2
2021/04/22 00:00:20;;;;;;;;;;;;;;;20.81;39.67;101146.38;5099969;28;752;-46
2021/04/22 00:02:45;;;;;;;;;;;;;;;20.70;40.00;101142.88;5099404;28;1013;-46
2021/04/22 00:05:20;;;;;;;;;;;;;;;20.71;39.85;101144.53;5081541;28;783;-62
2021/04/22 00:07:46;;;;;;;;;;;;;;;20.79;39.74;101143.91;5099870;28;736;-65
2021/04/22 00:10:12;;;;;;;;;;;;;;;20.72;40.04;101143.44;5099611;28;831;-64
2021/04/22 00:12:37;;;;;;;;;;;;;;;20.82;39.82;101156.31;5087281;28;1162;-46
2021/04/22 00:15:05;;;;;;;;;;;;;;;20.64;40.05;101146.78;5079117;28;1909;-45
2021/04/22 00:17:31;;;;;;;;;;;;;;;20.47;40.54;101156.34;5102350;28;963;-47
2021/04/22 00:19:56;;;;;;;;;;;;;;;20.68;40.18;101164.47;5119932;28;769;-45
2021/04/22 00:22:21;;;;;;;;;;;;;;;20.78;39.94;101158.81;5119960;28;775;-47
2021/04/22 00:24:47;;;;;;;;;;;;;;;20.72;39.81;101153.63;5120068;28;767;-46
2021/04/22 00:27:12;;;;;;;;;;;;;;;20.68;39.95;101157.00;5120063;28;871;-46
2021/04/22 00:29:38;;;;;;;;;;;;;;;20.66;40.26;101155.59;5119817;28;808;-45
2021/04/22 00:32:03;;;;;;;;;;;;;;;20.79;39.96;101159.63;5119201;28;1016;-64
2021/04/22 00:34:29;;;;;;;;;;;;;;;20.72;40.12;101148.97;5119638;28;1909;-56
2021/04/22 00:36:54;;;;;;;;;;;;;;;20.50;40.51;101150.22;5119620;28;807;-47
2021/04/22 00:39:20;;;;;;;;;;;;;;;20.49;40.32;101148.56;5119459;28;822;-51
2021/04/22 00:41:45;;;;;;;;;;;;;;;20.50;40.64;101147.47;5119517;28;803;-70
2021/04/22 00:44:10;;;;;;;;;;;;;;;20.55;40.51;101143.81;5119534;28;763;-66
2021/04/22 00:46:36;;;;;;;;;;;;;;;20.73;39.82;101150.59;5108040;28;1584;-66
2021/04/22 00:49:01;;;;;;;;;;;;;;;20.44;40.50;101150.56;5099108;28;771;-65
2021/04/22 00:51:27;;;;;;;;;;;;;;;20.42;40.72;101150.88;5098998;28;740;-49
2021/04/22 00:53:53;;;;;;;;;;;;;;;20.61;40.01;101147.38;5098686;28;1914;-66
2021/04/22 00:56:18;;;;;;;;;;;;;;;20.62;40.08;101147.09;5080925;28;1285;-50
2021/04/22 00:58:43;;;;;;;;;;;;;;;20.54;40.08;101149.66;5098909;28;839;-66
2021/04/22 01:01:09;;;;;;;;;;;;;;;20.42;40.61;101150.03;5098359;28;1024;-57
2021/04/22 01:03:34;;;;;;;;;;;;;;;20.34;40.61;101155.09;5098825;28;969;-51
2021/04/22 01:06:00;;;;;;;;;;;;;;;20.73;39.69;101145.06;5098532;28;827;-51
2021/04/22 01:08:26;;;;;;;;;;;;;;;20.65;40.03;101148.41;5098505;28;803;-49
2021/04/22 01:10:52;;;;;;;;;;;;;;;20.30;40.71;101147.66;5098937;28;818;-49
2021/04/22 01:13:17;;;;;;;;;;;;;;;20.47;40.52;101142.53;5080353;28;1977;-50
2021/04/22 01:15:43;;;;;;;;;;;;;;;20.42;40.64;101153.63;5078553;28;760;-48
2021/04/22 01:18:08;;;;;;;;;;;;;;;20.39;40.65;101145.13;5093627;28;999;-47
2021/04/22 01:20:35;;;;;;;;;;;;;;;20.16;41.18;101141.97;5118766;28;838;-66
2021/04/22 01:23:01;;;;;;;;;;;;;;;20.47;40.45;101142.53;5118828;28;846;-71
2021/04/22 01:25:27;;;;;;;;;;;;;;;20.35;40.84;101153.13;5118626;28;771;-48
2021/04/22 01:27:53;;;;;;;;;;;;;;;20.33;40.86;101141.56;5118544;28;831;-50
2021/04/22 01:30:19;;;;;;;;;;;;;;;20.33;40.87;101158.16;5118694;28;796;-48
2021/04/22 01:32:45;;;;;;;;;;;;;;;20.33;40.53;101152.63;5118102;28;953;-48
2021/04/22 01:35:12;;;;;;;;;;;;;;;20.42;40.30;101156.38;5118794;28;1913;-62
2021/04/22 01:37:37;;;;;;;;;;;;;;;20.39;40.45;101161.69;5118340;28;846;-50
2021/04/22 01:40:03;;;;;;;;;;;;;;;20.44;40.33;101165.22;5118425;28;811;-63
2021/04/22 01:42:28;;;;;;;;;;;;;;;20.17;40.99;101161.03;5100259;28;874;-53
2021/04/22 01:44:54;;;;;;;;;;;;;;;20.28;40.68;101161.75;5118167;28;728;-69
2021/04/22 01:47:19;;;;;;;;;;;;;;;20.47;40.23;101164.63;5101402;28;1736;-67
2021/04/22 01:49:45;;;;;;;;;;;;;;;20.40;40.56;101168.84;5097599;28;779;-69
2021/04/22 01:52:10;;;;;;;;;;;;;;;20.52;40.10;101166.50;5097734;28;751;-50
2021/04/22 01:54:35;;;;;;;;;;;;;;;20.43;40.56;101165.50;5079707;28;1984;-67
2021/04/22 01:57:01;;;;;;;;;;;;;;;20.62;40.12;101165.59;5097301;28;859;-64
2021/04/22 01:59:26;;;;;;;;;;;;;;;20.34;40.67;101163.38;5096802;28;811;-49
2021/04/22 02:01:52;;;;;;;;;;;;;;;20.58;40.09;101164.53;5097224;28;1009;-50
2021/04/22 02:04:17;;;;;;;;;;;;;;;20.44;40.17;101167.13;5097207;28;835;-59
2021/04/22 02:06:43;;;;;;;;;;;;;;;20.47;40.32;101161.88;5097507;28;736;-65
2021/04/22 02:09:08;;;;;;;;;;;;;;;20.65;39.81;101160.31;5095680;28;847;-51
2021/04/22 02:11:34;;;;;;;;;;;;;;;20.65;39.84;101165.84;5093742;28;1182;-49
2021/04/22 02:14:00;;;;;;;;;;;;;;;20.29;40.74;101162.59;5076861;28;1996;-60
2021/04/22 02:16:25;;;;;;;;;;;;;;;20.44;40.49;101170.75;5079294;28;951;-66
2021/04/22 02:18:51;;;;;;;;;;;;;;;20.63;40.04;101173.59;5097082;28;888;-65
2021/04/22 02:21:16;;;;;;;;;;;;;;;20.61;39.96;101169.50;5097077;28;760;-49
2021/04/22 02:23:41;;;;;;;;;;;;;;;20.79;39.77;101166.00;5096964;28;832;-62
2021/04/22 02:26:07;;;;;;;;;;;;;;;20.67;39.86;101176.59;5096822;28;835;-48
2021/04/22 02:28:34;;;;;;;;;;;;;;;20.43;40.21;101176.56;5097165;28;755;-51
2021/04/22 02:30:59;;;;;;;;;;;;;;;20.44;40.25;101175.44;5096792;28;767;-63
2021/04/22 02:33:25;;;;;;;;;;;;;;;20.37;40.46;101170.25;5096532;28;1917;-49
2021/04/22 02:35:50;;;;;;;;;;;;;;;20.50;40.11;101169.56;5096996;28;807;-62
2021/04/22 02:38:16;;;;;;;;;;;;;;;20.46;40.26;101179.56;5096850;28;747;-62
2021/04/22 02:40:42;;;;;;;;;;;;;;;20.46;40.41;101168.50;5096822;28;728;-51
2021/04/22 02:43:08;;;;;;;;;;;;;;;20.30;40.67;101169.75;5097093;28;843;-49
2021/04/22 02:45:36;;;;;;;;;;;;;;;20.25;40.73;101175.34;5096574;28;1555;-64
2021/04/22 02:48:01;;;;;;;;;;;;;;;20.51;40.05;101171.22;5096326;28;954;-51
2021/04/22 02:50:27;;;;;;;;;;;;;;;20.19;40.89;101180.06;5096538;28;827;-48
2021/04/22 02:52:53;;;;;;;;;;;;;;;19.98;41.43;101182.16;5096588;28;736;-49
2021/04/22 02:55:18;;;;;;;;;;;;;;;19.90;41.55;101169.78;5096175;28;1909;-49
2021/04/22 02:57:44;;;;;;;;;;;;;;;20.68;39.86;101172.75;5096619;28;791;-64
2021/04/22 03:00:10;;;;;;;;;;;;;;;21.40;38.18;101177.44;5095599;28;1154;-62
2021/04/22 03:02:36;;;;;;;;;;;;;;;20.95;39.38;101185.19;5108511;28;1017;-51
2021/04/22 03:05:01;;;;;;;;;;;;;;;20.80;39.47;101184.25;5116941;28;784;-65
2021/04/22 03:07:27;;;;;;;;;;;;;;;20.29;40.58;101184.69;5116543;28;819;-51
2021/04/22 03:09:52;;;;;;;;;;;;;;;20.29;40.61;101185.50;5116577;28;851;-63
2021/04/22 03:12:17;;;;;;;;;;;;;;;21.23;38.64;101188.19;5107107;28;1142;-55
2021/04/22 03:14:43;;;;;;;;;;;;;;;21.11;38.71;101192.19;5095970;28;1984;-65
2021/04/22 03:17:08;;;;;;;;;;;;;;;20.90;39.40;101186.09;5078384;28;994;-49
2021/04/22 03:19:34;;;;;;;;;;;;;;;20.70;39.74;101195.38;5096152;28;792;-62
2021/04/22 03:21:59;;;;;;;;;;;;;;;20.12;40.74;101193.38;5096161;28;1034;-63
2021/04/22 03:24:25;;;;;;;;;;;;;;;20.88;39.75;101195.78;5096295;28;775;-53
2021/04/22 03:26:51;;;;;;;;;;;;;;;21.33;38.87;101199.13;5096045;28;779;-52
2021/04/22 03:29:16;;;;;;;;;;;;;;;21.04;39.88;101194.47;5096117;28;728;-48
2021/04/22 03:31:41;;;;;;;;;;;;;;;20.94;39.91;101205.66;5095761;28;1072;-48
2021/04/22 03:34:07;;;;;;;;;;;;;;;20.42;40.97;101205.28;5096202;28;1901;-59
2021/04/22 03:36:32;;;;;;;;;;;;;;;19.76;41.92;101205.44;5096284;28;791;-47
2021/04/22 03:38:58;;;;;;;;;;;;;;;21.03;39.87;101210.25;5095948;28;755;-52
2021/04/22 03:41:24;;;;;;;;;;;;;;;21.66;38.36;101211.16;5095958;28;736;-60
2021/04/22 03:43:50;;;;;;;;;;;;;;;21.25;39.34;101222.75;5096354;28;772;-63
2021/04/22 03:46:16;;;;;;;;;;;;;;;21.29;39.06;101222.94;5095526;28;1590;-60
2021/04/22 03:48:41;;;;;;;;;;;;;;;20.32;41.29;101220.81;5095863;28;771;-59
2021/04/22 03:51:07;;;;;;;;;;;;;;;19.93;42.08;101215.31;5096071;28;760;-50
2021/04/22 03:53:32;;;;;;;;;;;;;;;20.60;40.86;101225.84;5095987;28;1972;-49
2021/04/22 03:55:58;;;;;;;;;;;;;;;21.61;38.33;101218.72;5095730;28;780;-61
2021/04/22 03:58:23;;;;;;;;;;;;;;;21.18;39.17;101228.63;5096094;28;740;-57
2021/04/22 04:00:49;;;;;;;;;;;;;;;21.06;39.57;101225.44;5096263;28;748;-53
2021/04/22 04:03:14;;;;;;;;;;;;;;;20.27;40.83;101222.81;5095383;28;954;-56
2021/04/22 04:05:39;;;;;;;;;;;;;;;19.88;41.98;101235.50;5077471;28;851;-63
2021/04/22 04:08:05;;;;;;;;;;;;;;;21.02;39.86;101236.25;5096179;28;736;-55
2021/04/22 04:10:31;;;;;;;;;;;;;;;21.01;39.48;101242.91;5095851;28;827;-55
2021/04/22 04:12:56;;;;;;;;;;;;;;;20.97;39.62;101241.84;5080934;28;1150;-59
2021/04/22 04:15:22;;;;;;;;;;;;;;;20.78;40.03;101252.78;5075121;28;1992;-59
2021/04/22 04:17:47;;;;;;;;;;;;;;;20.40;40.81;101247.00;5089631;28;971;-59
2021/04/22 04:20:13;;;;;;;;;;;;;;;20.04;41.54;101255.53;5095338;28;763;-56
2021/04/22 04:22:39;;;;;;;;;;;;;;;20.29;41.31;101249.03;5098278;28;771;-55
2021/04/22 04:25:05;;;;;;;;;;;;;;;21.23;39.11;101258.16;5081682;28;743;-55
2021/04/22 04:27:30;;;;;;;;;;;;;;;20.91;39.60;101256.81;5099514;28;724;-60
2021/04/22 04:29:55;;;;;;;;;;;;;;;20.94;39.65;101267.28;5099198;28;790;-55
2021/04/22 04:32:21;;;;;;;;;;;;;;;20.58;40.09;101258.47;5099255;28;1005;-54
2021/04/22 04:34:46;;;;;;;;;;;;;;;20.15;41.22;101257.13;5098970;28;1978;-52
2021/04/22 04:37:12;;;;;;;;;;;;;;;19.83;42.30;101263.94;5099109;28;739;-53
2021/04/22 04:39:37;;;;;;;;;;;;;;;21.06;39.61;101263.31;5099233;28;863;-52
2021/04/22 04:42:03;;;;;;;;;;;;;;;21.33;38.81;101262.75;5099718;28;791;-51
2021/04/22 04:44:28;;;;;;;;;;;;;;;21.06;39.52;101266.91;5098860;28;779;-53
2021/04/22 04:46:54;;;;;;;;;;;;;;;21.03;39.40;101275.78;5098539;28;1630;-52
2021/04/22 04:49:19;;;;;;;;;;;;;;;20.25;40.79;101271.97;5098796;28;736;-56
2021/04/22 04:51:44;;;;;;;;;;;;;;;19.79;41.86;101276.63;5098974;28;728;-55
2021/04/22 04:54:10;;;;;;;;;;;;;;;20.97;39.69;101277.78;5098895;28;1913;-51
2021/04/22 04:56:35;;;;;;;;;;;;;;;21.20;38.91;101273.38;5098620;28;724;-50
2021/04/22 04:59:01;;;;;;;;;;;;;;;20.95;39.64;101276.41;5080684;28;791;-54
2021/04/22 05:01:26;;;;;;;;;;;;;;;20.83;39.63;101274.88;5098676;28;966;-55
2021/04/22 05:03:52;;;;;;;;;;;;;;;20.42;40.43;101283.44;5098495;28;783;-55
2021/04/22 05:06:17;;;;;;;;;;;;;;;20.55;40.54;101284.72;5098653;28;834;-58
2021/04/22 05:08:43;;;;;;;;;;;;;;;21.54;38.33;101274.41;5098667;28;771;-51
2021/04/22 05:11:08;;;;;;;;;;;;;;;21.05;39.42;101281.84;5098427;28;728;-50
2021/04/22 05:13:33;;;;;;;;;;;;;;;21.15;39.14;101283.66;5078297;28;1906;-51
2021/04/22 05:15:59;;;;;;;;;;;;;;;20.40;40.58;101288.44;5078306;28;808;-51
2021/04/22 05:18:27;;;;;;;;;;;;;;;19.99;41.54;101280.41;5116493;28;935;-46
2021/04/22 05:20:53;;;;;;;;;;;;;;;20.99;39.47;101288.53;5118755;28;798;-57
2021/04/22 05:23:19;;;;;;;;;;;;;;;21.15;39.26;101290.06;5118656;28;838;-50
2021/04/22 05:25:44;;;;;;;;;;;;;;;20.95;39.69;101290.25;5100044;28;1324;-55
2021/04/22 05:28:09;;;;;;;;;;;;;;;20.61;40.33;101291.88;5118687;28;740;-53
2021/04/22 05:30:35;;;;;;;;;;;;;;;20.14;40.84;101291.34;5085247;28;1288;-61
2021/04/22 05:33:00;;;;;;;;;;;;;;;20.49;40.77;101295.00;5100083;28;820;-51
2021/04/22 05:35:26;;;;;;;;;;;;;;;21.40;38.65;101296.41;5079182;28;1913;-52
2021/04/22 05:37:51;;;;;;;;;;;;;;;21.87;37.69;101293.94;5097871;28;831;-60
2021/04/22 05:40:17;;;;;;;;;;;;;;;21.29;38.75;101294.88;5097378;28;835;-60
2021/04/22 05:42:43;;;;;;;;;;;;;;;21.09;39.32;101295.91;5079866;28;990;-54
2021/04/22 05:45:08;;;;;;;;;;;;;;;20.56;40.51;101299.38;5097560;28;787;-56
2021/04/22 05:47:34;;;;;;;;;;;;;;;20.12;41.46;101296.34;5097277;28;1696;-53
2021/04/22 05:49:59;;;;;;;;;;;;;;;19.94;41.76;101295.06;5097745;28;744;-57
2021/04/22 05:52:24;;;;;;;;;;;;;;;20.21;41.33;101293.81;5097597;28;748;-50
2021/04/22 05:54:50;;;;;;;;;;;;;;;20.41;40.85;101303.06;5097585;28;1910;-59
2021/04/22 05:57:15;;;;;;;;;;;;;;;20.51;40.62;101303.81;5097622;28;767;-59
2021/04/22 05:59:41;;;;;;;;;;;;;;;20.64;40.42;101305.09;5097480;28;843;-50
2021/04/22 06:02:06;;;;;;;;;;;;;;;20.49;40.50;101311.56;5097313;28;962;-48
2021/04/22 06:04:31;;;;;;;;;;;;;;;20.39;41.03;101303.38;5097892;28;760;-50
2021/04/22 06:06:57;;;;;;;;;;;;;;;20.40;40.89;101306.94;5097660;28;744;-49
2021/04/22 06:09:22;;;;;;;;;;;;;;;20.65;40.27;101315.06;5097727;28;740;-52
2021/04/22 06:11:48;;;;;;;;;;;;;;;20.61;40.49;101313.16;5091917;28;1139;-55
2021/04/22 06:14:14;;;;;;;;;;;;;;;20.76;39.97;101307.56;5076776;28;1902;-59
2021/04/22 06:16:39;;;;;;;;;;;;;;;20.79;40.05;101308.88;5085954;28;1029;-53
2021/04/22 06:19:05;;;;;;;;;;;;;;;20.90;39.78;101299.41;5117433;28;747;-60
2021/04/22 06:21:30;;;;;;;;;;;;;;;20.89;39.82;101296.91;5117322;28;850;-63
2021/04/22 06:23:56;;;;;;;;;;;;;;;20.88;39.87;101298.06;5117666;28;799;-61
2021/04/22 06:26:22;;;;;;;;;;;;;;;20.67;40.24;101301.78;5117804;28;775;-52
2021/04/22 06:28:48;;;;;;;;;;;;;;;21.00;39.53;101298.50;5117476;28;847;-53
2021/04/22 06:31:13;;;;;;;;;;;;;;;21.09;39.24;101298.69;5117210;28;949;-58
2021/04/22 06:33:39;;;;;;;;;;;;;;;21.11;39.35;101304.72;5116851;28;1980;-48
2021/04/22 06:36:05;;;;;;;;;;;;;;;21.13;39.29;101305.28;5117301;28;751;-62
2021/04/22 06:38:30;;;;;;;;;;;;;;;21.33;38.82;101307.00;5117652;28;786;-52
2021/04/22 06:40:56;;;;;;;;;;;;;;;21.24;39.04;101303.22;5116630;28;1132;-59
2021/04/22 06:43:21;;;;;;;;;;;;;;;21.25;39.08;101299.34;5091918;28;837;-49
2021/04/22 06:45:47;;;;;;;;;;;;;;;21.13;39.14;101297.78;5095398;28;1380;-50
2021/04/22 06:48:13;;;;;;;;;;;;;;;21.15;39.43;101300.25;5096004;28;876;-54
2021/04/22 06:50:39;;;;;;;;;;;;;;;21.26;38.98;101301.00;5096359;28;883;-54
2021/04/22 06:53:04;;;;;;;;;;;;;;;21.26;39.30;101301.81;5096546;28;801;-61
2021/04/22 06:55:30;;;;;;;;;;;;;;;21.27;39.09;101297.13;5096242;28;1994;-60
2021/04/22 06:57:56;;;;;;;;;;;;;;;21.25;39.29;101313.16;5096632;28;879;-55
2021/04/22 07:00:21;;;;;;;;;;;;;;;21.37;38.90;101308.06;5096487;28;767;-64
2021/04/22 07:02:47;;;;;;;;;;;;;;;21.51;38.65;101305.41;5095740;28;1014;-65
2021/04/22 07:05:13;;;;;;;;;;;;;;;21.41;39.01;101311.88;5096598;28;767;-65
2021/04/22 07:07:39;;;;;;;;;;;;;;;21.32;39.21;101311.72;5096517;28;748;-65
2021/04/22 07:10:04;;;;;;;;;;;;;;;;;;5077848;28;875;-58
2021/04/22 07:12:30;;;;;;;;;;;;;;;21.50;38.70;101312.91;5094576;28;1106;-64
2021/04/22 07:14:55;;;;;;;;;;;;;;;21.35;39.07;101311.13;5095858;28;1894;-64
2021/04/22 07:17:21;;;;;;;;;;;;;;;21.53;38.54;101314.25;5106099;28;1002;-65
2021/04/22 07:19:47;;;;;;;;;;;;;;;21.73;38.30;101316.00;5116711;28;892;-61
2021/04/22 07:22:12;;;;;;;;;;;;;;;21.73;38.35;101321.53;5116537;28;846;-61
2021/04/22 07:24:39;;;;;;;;;;;;;;;21.72;38.24;101325.41;5097210;28;851;-61
2021/04/22 07:27:05;;;;;;;;;;;;;;;21.64;38.45;101323.28;5096198;28;831;-63
2021/04/22 07:29:31;;;;;;;;;;;;;;;21.28;39.24;101323.63;5096173;28;807;-62
2021/04/22 07:31:56;;;;;;;;;;;;;;;21.16;39.49;101324.03;5102703;28;1021;-63
2021/04/22 07:34:22;;;;;;;;;;;;;;;21.00;39.99;101323.38;5116336;28;1913;-62
2021/04/22 07:36:47;;;;;;;;;;;;;;;21.33;38.91;101318.06;5116444;28;735;-59
2021/04/22 07:39:13;;;;;;;;;;;;;;;21.56;38.80;101318.41;5114881;28;871;-61
2021/04/22 07:41:38;;;;;;;;;;;;;;;21.66;38.39;101323.81;5116443;28;799;-48
2021/04/22 07:44:04;;;;;;;;;;;;;;;21.81;38.13;101331.09;5116579;28;755;-57
2021/04/22 07:46:29;;;;;;;;;;;;;;;21.51;38.63;101324.78;5106499;28;1565;-57
2021/04/22 07:48:55;;;;;;;;;;;;;;;21.48;39.01;101331.72;5096461;28;743;-55
2021/04/22 07:51:20;;;;;;;;;;;;;;;21.72;38.38;101319.06;5096351;28;772;-48
2021/04/22 07:53:45;;;;;;;;;;;;;;;21.57;38.80;101320.06;5095856;28;1917;-57
2021/04/22 07:56:11;;;;;;;;;;;;;;;21.36;39.19;101328.53;5096665;28;791;-57
2021/04/22 07:58:36;;;;;;;;;;;;;;;21.18;39.61;101322.66;5099833;28;803;-57
2021/04/22 08:01:02;;;;;;;;;;;;;;;21.17;39.37;101326.53;5099795;28;752;-57
2021/04/22 08:03:27;;;;;;;;;;;;;;;21.58;38.73;101330.00;5099441;28;958;-57
2021/04/22 08:05:56;;;;;;;;;;;;;;;21.60;38.76;101327.75;5099597;28;810;-56
2021/04/22 08:08:22;;;;;;;;;;;;;;;21.65;38.60;101324.94;5099611;28;859;-58
2021/04/22 08:10:47;;;;;;;;;;;;;;;21.76;38.28;101332.00;5099737;28;854;-50
2021/04/22 08:13:14;;;;;;;;;;;;;;;22.01;37.95;101327.28;5082360;28;1222;-54
2021/04/22 08:15:39;;;;;;;;;;;;;;;21.59;38.50;101326.09;5078954;28;1910;-50
2021/04/22 08:18:06;;;;;;;;;;;;;;;21.39;39.11;101330.72;5112346;28;959;-53
2021/04/22 08:20:31;;;;;;;;;;;;;;;21.23;39.25;101323.72;5120043;28;779;-55
2021/04/22 08:22:57;;;;;;;;;;;;;;;21.34;39.31;101323.28;5119754;28;1006;-53
2021/04/22 08:25:33;;;;;;;;;;;;;;;21.51;38.66;101325.59;5119691;28;813;-54
2021/04/22 08:27:59;;;;;;;;;;;;;;;21.68;38.57;101319.63;5100761;28;832;-54
2021/04/22 08:30:29;;;;;;;;;;;;;;;21.69;38.23;101323.22;5101203;28;1098;-51
2021/04/22 08:32:55;;;;;;;;;;;;;;;21.88;37.92;101323.25;5119604;28;953;-54
2021/04/22 08:35:20;;;;;;;;;;;;;;;21.76;38.32;101329.22;5119864;28;1917;-56
2021/04/22 08:37:45;;;;;;;;;;;;;;;21.43;38.95;101323.47;5119864;28;787;-53
2021/04/22 08:40:11;;;;;;;;;;;;;;;21.43;39.09;101322.66;5119594;28;845;-53
2021/04/22 08:42:37;;;;;;;;;;;;;;;21.35;38.87;101326.91;5119297;28;854;-54
2021/04/22 08:45:04;;;;;;;;;;;;;;;21.37;39.25;101319.94;5101105;28;818;-54
2021/04/22 08:47:29;;;;;;;;;;;;;;;21.51;38.71;101320.06;5101296;28;1668;-54
2021/04/22 08:49:55;;;;;;;;;;;;;;;21.57;38.60;101320.88;5098472;28;907;-56
2021/04/22 08:52:20;;;;;;;;;;;;;;;21.79;38.32;101325.88;5080701;28;948;-55
2021/04/22 08:54:46;;;;;;;;;;;;;;;21.93;38.08;101327.94;5099002;28;1914;-60
2021/04/22 08:57:11;;;;;;;;;;;;;;;21.63;38.61;101321.63;5098719;28;819;-57
2021/04/22 08:59:37;;;;;;;;;;;;;;;21.72;38.27;101324.59;5099096;28;744;-57
2021/04/22 09:02:02;;;;;;;;;;;;;;;21.13;39.66;101325.44;5080237;28;1014;-58
2021/04/22 09:04:28;;;;;;;;;;;;;;;21.44;38.95;101325.13;5098235;28;847;-57
2021/04/22 09:06:53;;;;;;;;;;;;;;;21.71;38.29;101320.97;5098304;28;803;-53
2021/04/22 09:09:19;;;;;;;;;;;;;;;21.73;38.22;101321.53;5098570;28;783;-53
2021/04/22 09:11:45;;;;;;;;;;;;;;;21.89;38.00;101319.38;5093397;28;1181;-53
2021/04/22 09:14:15;;;;;;;;;;;;;;;22.14;37.39;101315.44;5060306;28;1898;-55
2021/04/22 09:16:40;;;;;;;;;;;;;;;21.79;38.39;101313.97;5098373;28;852;-51
2021/04/22 09:19:10;;;;;;;;;;;;;;;21.73;38.31;101309.59;5118628;28;771;-52
2021/04/22 09:21:38;;;;;;;;;;;;;;;21.25;39.31;101313.16;5118793;28;775;-51
2021/04/22 09:24:08;;;;;;;;;;;;;;;21.70;38.36;101311.06;5119007;28;833;-54
2021/04/22 09:26:54;;;;;;;;;;;;;;;21.94;37.88;101299.94;5118418;28;766;-53
2021/04/22 09:29:31;;;;;;;;;;;;;;;21.70;38.44;101294.44;5118214;28;1552;-53
2021/04/22 09:32:09;;;;;;;;;;;;;;;21.60;38.49;101294.53;5118203;28;958;-52
2021/04/22 09:34:34;;;;;;;;;;;;;;;21.09;39.58;101301.44;5118147;28;1910;-55
2021/04/22 09:37:00;;;;;;;;;;;;;;;21.43;39.04;101293.03;5118532;28;861;-53
2021/04/22 09:39:26;;;;;;;;;;;;;;;21.76;38.27;101298.78;5118220;28;849;-56
2021/04/22 09:41:53;;;;;;;;;;;;;;;21.81;38.12;101295.97;5118681;28;775;-54
2021/04/22 09:44:18;;;;;;;;;;;;;;;21.91;37.84;101299.69;5118180;28;810;-52
2021/04/22 09:46:46;;;;;;;;;;;;;;;21.96;38.01;101285.78;5106472;28;1613;-51
2021/04/22 09:49:13;;;;;;;;;;;;;;;21.61;38.49;101285.94;5097849;28;763;-53
2021/04/22 09:51:38;;;;;;;;;;;;;;;21.43;38.79;101284.75;5097873;28;809;-51
2021/04/22 09:54:05;;;;;;;;;;;;;;;21.38;39.26;101282.06;5097764;28;1905;-55
2021/04/22 09:56:40;;;;;;;;;;;;;;;21.66;38.45;101285.09;5097897;28;739;-52
2021/04/22 09:59:07;;;;;;;;;;;;;;;21.92;37.95;101287.50;5097588;28;807;-56
2021/04/22 10:01:32;;;;;;;;;;;;;;;21.90;38.08;101275.91;5096989;28;1009;-53
2021/04/22 10:03:57;;;;;;;;;;;;;;;21.51;38.57;101273.03;5097489;28;798;-53
2021/04/22 10:06:23;;;;;;;;;;;;;;;21.56;38.63;101283.25;5097329;28;798;-52
2021/04/22 10:08:48;;;;;;;;;;;;;;;21.26;39.28;101289.94;5079378;28;759;-57
2021/04/22 10:11:14;;;;;;;;;;;;;;;21.32;39.27;101280.44;5077849;28;859;-54
2021/04/22 10:13:43;;;;;;;;;;;;;;;21.53;38.79;101287.44;5097180;28;1921;-49
2021/04/22 10:16:08;;;;;;;;;;;;;;;21.78;38.29;101284.63;5097292;28;1014;-54
2021/04/22 10:18:37;;;;;;;;;;;;;;;21.99;37.89;101286.03;5116984;28;950;-61
2021/04/22 10:21:02;;;;;;;;;;;;;;;21.78;38.17;101291.00;5117379;28;786;-56
2021/04/22 10:23:28;;;;;;;;;;;;;;;21.74;38.41;101289.97;5117636;28;834;-51
2021/04/22 10:25:54;;;;;;;;;;;;;;;21.35;39.19;101288.19;5106077;28;800;-54
2021/04/22 10:28:19;;;;;;;;;;;;;;;21.50;38.98;101284.41;5093893;28;935;-54
2021/04/22 10:30:48;;;;;;;;;;;;;;;21.78;38.24;101285.44;5096087;28;981;-57
2021/04/22 10:33:13;;;;;;;;;;;;;;;21.75;38.48;101291.59;5109285;28;809;-60
2021/04/22 10:35:39;;;;;;;;;;;;;;;21.64;38.51;101281.78;5078402;28;1910;-55
2021/04/22 10:38:05;;;;;;;;;;;;;;;21.60;38.72;101277.94;5097579;28;805;-58
2021/04/22 10:40:32;;;;;;;;;;;;;;;21.32;39.18;101288.75;5096758;28;791;-53
2021/04/22 10:42:58;;;;;;;;;;;;;;;21.23;39.55;101285.00;5096725;28;820;-59
2021/04/22 10:45:24;;;;;;;;;;;;;;;21.66;38.34;101276.78;5096551;28;864;-60
2021/04/22 10:47:49;;;;;;;;;;;;;;;21.69;38.42;101285.28;5091695;28;755;-57
2021/04/22 10:50:16;;;;;;;;;;;;;;;21.83;38.12;101287.34;5096419;28;767;-56
2021/04/22 10:52:42;;;;;;;;;;;;;;;21.52;39.02;101273.91;5096676;28;831;-58
2021/04/22 10:55:14;;;;;;;;;;;;;;;21.63;38.54;101271.81;5078224;28;1906;-48
2021/04/22 10:57:39;;;;;;;;;;;;;;;21.34;39.34;101267.97;5078877;28;672;-61
2021/04/22 11:00:07;;;;;;;;;;;;;;;21.34;39.19;101267.16;5114849;28;791;-57
2021/04/22 11:02:39;;;;;;;;;;;;;;;21.85;38.34;101262.94;5086404;28;966;-59
2021/04/22 11:05:05;;;;;;;;;;;;;;;21.82;38.18;101267.13;5096278;28;684;-59
2021/04/22 11:07:30;;;;;;;;;;;;;;;22.04;37.67;101258.25;5078469;28;1338;-52
2021/04/22 11:09:57;;;;;;;;;;;;;;;21.75;38.52;101269.44;5096282;28;791;-54
2021/04/22 11:12:26;;;;;;;;;;;;;;;21.35;39.06;101255.00;5086768;28;1186;-54
2021/04/22 11:14:52;;;;;;;;;;;;;;;21.29;39.48;101251.44;5078198;28;1914;-53
2021/04/22 11:17:18;;;;;;;;;;;;;;;21.27;39.33;101241.81;5105825;28;951;-51
2021/04/22 11:19:45;;;;;;;;;;;;;;;21.83;38.22;101240.28;5083524;28;816;-54
2021/04/22 11:22:31;;;;;;;;;;;;;;;22.02;38.01;101243.03;5096046;28;813;-56
2021/04/22 11:25:00;;;;;;;;;;;;;;;21.72;38.38;101242.38;5095380;28;1306;-52
2021/04/22 11:27:26;;;;;;;;;;;;;;;21.50;38.96;101240.13;5078455;28;585;-56
2021/04/22 11:29:52;;;;;;;;;;;;;;;21.33;39.30;101240.59;5096278;28;767;-55
2021/04/22 11:32:22;;;;;;;;;;;;;;;21.48;39.04;101240.41;5100388;28;974;-53
2021/04/22 11:34:48;;;;;;;;;;;;;;;21.96;37.85;101238.72;5100317;28;1976;-54
2021/04/22 11:37:14;;;;;;;;;;;;;;;22.04;37.74;101235.28;5100392;28;766;-55
2021/04/22 11:39:40;;;;;;;;;;;;;;;21.93;37.88;101231.00;5100258;28;767;-54
2021/04/22 11:42:05;;;;;;;;;;;;;;;21.76;38.38;101226.81;5100622;28;754;-55
2021/04/22 11:44:48;;;;;;;;;;;;;;;21.66;38.47;101226.97;5099768;28;828;-49
2021/04/22 11:47:17;;;;;;;;;;;;;;;21.30;39.33;101228.19;5099550;28;1699;-55
2021/04/22 11:49:42;;;;;;;;;;;;;;;21.76;38.45;101221.28;5099346;28;883;-54
2021/04/22 11:52:15;;;;;;;;;;;;;;;22.02;37.90;101216.19;5100023;28;739;-49
2021/04/22 11:54:40;;;;;;;;;;;;;;;21.80;38.38;101216.78;5100344;28;1984;-53
2021/04/22 11:57:06;;;;;;;;;;;;;;;21.66;38.90;101221.44;5100023;28;823;-52
2021/04/22 11:59:31;;;;;;;;;;;;;;;21.53;38.81;101217.41;5099831;28;826;-54
2021/04/22 12:02:01;;;;;;;;;;;;;;;21.26;39.80;101212.50;5081424;28;963;-49
2021/04/22 12:04:45;;;;;;;;;;;;;;;21.77;38.62;101213.78;5099965;28;826;-53
2021/04/22 12:07:13;;;;;;;;;;;;;;;21.95;38.32;101215.75;5099560;28;771;-50
2021/04/22 12:09:40;;;;;;;;;;;;;;;22.10;37.81;101213.88;5100181;28;731;-48
2021/04/22 12:12:12;;;;;;;;;;;;;;;21.64;38.71;101209.81;5091917;28;1202;-52
2021/04/22 12:14:37;;;;;;;;;;;;;;;21.65;38.84;101214.25;5078748;28;1914;-49
2021/04/22 12:17:03;;;;;;;;;;;;;;;21.09;40.13;101211.00;5094747;28;967;-48
2021/04/22 12:19:30;;;;;;;;;;;;;;;21.70;38.89;101206.69;5065324;28;1078;-54
2021/04/22 12:21:58;;;;;;;;;;;;;;;22.12;37.93;101212.44;5099227;28;866;-53
2021/04/22 12:24:24;;;;;;;;;;;;;;;22.30;37.52;101207.16;5099194;28;875;-54
2021/04/22 12:26:49;;;;;;;;;;;;;;;22.42;37.27;101199.25;5099343;28;771;-52
2021/04/22 12:29:15;;;;;;;;;;;;;;;21.95;38.43;101192.75;5099224;28;820;-51
2021/04/22 12:31:40;;;;;;;;;;;;;;;21.70;38.93;101195.63;5103575;28;828;-53
2021/04/22 12:34:12;;;;;;;;;;;;;;;21.40;39.46;101191.28;5119458;28;1906;-50
2021/04/22 12:36:38;;;;;;;;;;;;;;;21.17;40.23;101198.50;5119781;28;802;-51
2021/04/22 12:39:04;;;;;;;;;;;;;;;21.59;39.08;101196.03;5119657;28;758;-53
2021/04/22 12:41:30;;;;;;;;;;;;;;;21.91;38.39;101194.50;5119423;28;572;-50
2021/04/22 12:43:55;;;;;;;;;;;;;;;21.88;38.65;101202.28;5118743;28;815;-51
2021/04/22 12:46:21;;;;;;;;;;;;;;;22.09;38.34;101203.91;5111017;28;1593;-51
2021/04/22 12:48:57;;;;;;;;;;;;;;;21.70;39.07;101197.56;5099084;28;775;-51